createdAt,value
2022-10-22T00:02:53.981Z,83.46
2022-10-22T00:05:56.433Z,84.60
2022-10-22T00:08:58.810Z,84.34
2022-10-22T00:12:01.119Z,83.92
2022-10-22T00:15:05.071Z,84.17
2022-10-22T00:18:07.402Z,84.66
2022-10-22T00:21:09.740Z,84.24
2022-10-22T00:24:12.888Z,84.48
2022-10-22T00:27:15.178Z,84.39
2022-10-22T00:30:17.398Z,84.49
2022-10-22T00:33:19.549Z,84.48
2022-10-22T00:36:22.576Z,83.74
2022-10-22T00:39:26.391Z,83.72
2022-10-22T00:42:31.612Z,83.09
2022-10-22T00:45:33.824Z,82.63
2022-10-22T00:48:36.013Z,82.24
2022-10-22T00:51:38.227Z,82.26
2022-10-22T00:54:42.195Z,82.36
2022-10-22T00:57:52.248Z,81.49
2022-10-22T01:00:55.478Z,81.88
2022-10-22T01:03:57.869Z,81.64
2022-10-22T01:07:00.183Z,82.44
2022-10-22T01:10:50.522Z,82.34
2022-10-22T01:14:12.205Z,82.19
2022-10-22T01:17:36.124Z,81.92
2022-10-22T01:20:50.335Z,81.66
2022-10-22T01:24:03.855Z,81.05
2022-10-22T01:27:18.244Z,80.64
2022-10-22T01:30:20.980Z,80.57
2022-10-22T01:33:25.278Z,80.69
2022-10-22T01:36:31.358Z,80.73
2022-10-22T01:39:36.836Z,80.44
2022-10-22T01:42:39.015Z,80.16
2022-10-22T01:45:48.663Z,79.98
2022-10-22T01:49:02.593Z,79.79
2022-10-22T01:52:16.180Z,79.58
2022-10-22T01:55:29.472Z,79.38
2022-10-22T01:58:50.761Z,80.14
2022-10-22T02:02:04.530Z,79.35
2022-10-22T02:05:09.788Z,79.66
2022-10-22T02:08:15.912Z,78.73
2022-10-22T02:11:18.754Z,77.71
2022-10-22T02:14:21.687Z,77.00
2022-10-22T02:17:27.079Z,75.53
2022-10-22T02:20:33.087Z,75.15
2022-10-22T02:23:35.814Z,74.58
2022-10-22T02:26:50.117Z,74.94
2022-10-22T02:30:04.956Z,76.02
2022-10-22T02:33:10.574Z,75.50
2022-10-22T02:36:14.506Z,75.71
2022-10-22T02:39:18.551Z,76.73
2022-10-22T02:42:20.767Z,77.39
2022-10-22T02:45:23.105Z,77.11
2022-10-22T02:48:25.461Z,77.04
2022-10-22T02:51:27.683Z,78.50
2022-10-22T02:54:29.900Z,79.74
2022-10-22T02:57:32.454Z,80.99
2022-10-22T03:00:34.660Z,79.73
2022-10-22T03:03:36.889Z,79.19
2022-10-22T03:06:39.121Z,78.70
2022-10-22T03:09:41.356Z,78.13
2022-10-22T03:12:43.576Z,77.27
2022-10-22T03:15:48.767Z,77.43
2022-10-22T03:18:50.921Z,77.20
2022-10-22T03:21:58.648Z,76.59
2022-10-22T03:25:07.843Z,76.28
2022-10-22T03:28:11.429Z,77.15
2022-10-22T03:31:13.591Z,77.77
2022-10-22T03:34:15.805Z,78.03
2022-10-22T03:37:18.230Z,78.39
2022-10-22T03:40:20.874Z,79.05
2022-10-22T03:43:23.081Z,79.09
2022-10-22T03:46:25.283Z,79.44
2022-10-22T03:49:27.433Z,80.02
2022-10-22T03:52:34.923Z,79.67
2022-10-22T03:55:38.338Z,80.51
2022-10-22T03:58:41.876Z,79.02
2022-10-22T04:01:44.053Z,79.75
2022-10-22T04:04:46.223Z,80.25
2022-10-22T04:07:48.390Z,80.66
2022-10-22T04:10:53.383Z,81.32
2022-10-22T04:13:55.552Z,81.00
2022-10-22T04:16:57.887Z,81.29
2022-10-22T04:20:00.091Z,81.88
2022-10-22T04:23:02.257Z,84.03
2022-10-22T04:26:06.785Z,84.95
2022-10-22T04:29:11.972Z,84.59
2022-10-22T04:32:17.399Z,83.78
2022-10-22T04:35:19.678Z,84.71
2022-10-22T04:38:21.857Z,84.15
2022-10-22T04:41:26.975Z,84.00
2022-10-22T04:44:29.156Z,82.93
2022-10-22T04:47:31.319Z,82.70
2022-10-22T04:50:33.501Z,82.94
2022-10-22T04:53:36.122Z,83.47
2022-10-22T04:56:38.468Z,83.17
2022-10-22T04:59:40.833Z,83.26
2022-10-22T05:02:44.753Z,83.66
2022-10-22T05:05:46.924Z,82.30
2022-10-22T05:08:53.880Z,81.80
2022-10-22T05:11:56.121Z,81.76
2022-10-22T05:14:58.289Z,80.61
2022-10-22T05:18:00.455Z,79.99
2022-10-22T05:21:03.576Z,77.01
2022-10-22T05:24:06.207Z,75.76
2022-10-22T05:27:08.430Z,74.58
2022-10-22T05:30:11.350Z,74.33
2022-10-22T05:33:13.518Z,73.63
2022-10-22T05:36:18.937Z,73.06
2022-10-22T05:39:21.087Z,72.04
2022-10-22T05:42:23.404Z,71.57
2022-10-22T05:45:25.581Z,71.75
2022-10-22T05:48:27.800Z,71.43
2022-10-22T05:51:32.688Z,71.30
2022-10-22T05:54:34.990Z,69.51
2022-10-22T05:57:37.159Z,68.68
2022-10-22T06:00:39.449Z,67.81
2022-10-22T06:03:42.104Z,67.69
2022-10-22T06:06:54.996Z,67.77
2022-10-22T06:09:57.268Z,67.93
2022-10-22T06:13:01.503Z,68.75
2022-10-22T06:16:03.729Z,69.57
2022-10-22T06:19:06.294Z,70.05
2022-10-22T06:22:08.479Z,70.19
2022-10-22T06:25:10.927Z,70.37
2022-10-22T06:28:13.122Z,70.72
2022-10-22T06:31:15.299Z,70.87
2022-10-22T06:34:20.561Z,71.44
2022-10-22T06:37:22.777Z,71.23
2022-10-22T06:40:25.007Z,71.66
2022-10-22T06:43:28.679Z,71.45
2022-10-22T06:46:31.854Z,71.98
2022-10-22T06:49:34.014Z,72.54
2022-10-22T06:52:42.514Z,71.90
2022-10-22T06:55:44.683Z,72.14
2022-10-22T06:58:48.546Z,72.22
2022-10-22T07:01:50.834Z,72.62
2022-10-22T07:04:53.086Z,72.31
2022-10-22T07:07:55.268Z,72.02
2022-10-22T07:11:04.959Z,72.14
2022-10-22T07:14:07.548Z,72.15
2022-10-22T07:17:09.983Z,71.77
2022-10-22T07:20:14.999Z,71.15
2022-10-22T07:23:17.577Z,71.00
2022-10-22T07:26:20.436Z,70.44
2022-10-22T07:29:22.648Z,69.79
2022-10-22T07:32:24.887Z,68.39
2022-10-22T07:35:27.092Z,68.14
2022-10-22T07:38:29.806Z,66.44
2022-10-22T07:41:32.074Z,65.52
2022-10-22T07:44:34.259Z,67.02
2022-10-22T07:47:36.577Z,67.97
2022-10-22T07:50:38.791Z,67.73
2022-10-22T07:53:41.066Z,68.46
2022-10-22T07:56:43.228Z,68.17
2022-10-22T07:59:45.407Z,66.81
2022-10-22T08:02:47.609Z,64.40
2022-10-22T08:05:51.326Z,63.81
2022-10-22T08:08:53.602Z,63.03
2022-10-22T08:11:55.800Z,61.19
2022-10-22T08:14:58.061Z,59.58
2022-10-22T08:18:00.211Z,58.86
2022-10-22T08:21:02.448Z,58.20
2022-10-22T08:24:05.011Z,58.96
2022-10-22T08:27:07.273Z,59.75
2022-10-22T08:30:10.202Z,59.96
2022-10-22T08:33:12.366Z,60.17
2022-10-22T08:36:14.527Z,59.95
2022-10-22T08:39:16.731Z,59.60
2022-10-22T08:42:49.394Z,59.69
2022-10-22T08:46:01.819Z,60.41
2022-10-22T08:52:19.443Z,59.62
2022-10-22T08:55:24.623Z,58.31
2022-10-22T08:58:40.387Z,58.93
2022-10-22T09:01:46.992Z,58.78
2022-10-22T09:05:02.134Z,59.90
2022-10-22T09:08:05.658Z,58.91
2022-10-22T09:11:10.976Z,60.08
2022-10-22T09:14:16.772Z,60.20
2022-10-22T09:17:21.951Z,59.99
2022-10-22T09:20:28.781Z,58.93
2022-10-22T09:24:16.748Z,56.58
2022-10-22T09:27:21.559Z,55.22
2022-10-22T09:30:26.761Z,53.29
2022-10-22T09:33:31.792Z,52.60
2022-10-22T09:36:34.965Z,51.06
2022-10-22T09:39:44.434Z,50.35
2022-10-22T09:42:47.448Z,50.74
2022-10-22T09:46:00.427Z,48.83
2022-10-22T09:49:06.911Z,47.34
2022-10-22T09:52:27.492Z,48.79
2022-10-22T09:55:29.738Z,47.64
2022-10-22T09:58:42.376Z,48.86
2022-10-22T10:01:45.313Z,47.85
2022-10-22T10:04:48.904Z,48.82
2022-10-22T10:07:51.072Z,47.68
2022-10-22T10:11:05.913Z,46.63
2022-10-22T10:14:28.450Z,45.37
2022-10-22T10:18:02.742Z,46.36
2022-10-22T10:21:32.748Z,46.47
2022-10-22T10:25:05.692Z,46.62
2022-10-22T10:28:45.037Z,45.97
2022-10-22T10:32:22.326Z,45.36
2022-10-22T10:35:28.226Z,43.46
2022-10-22T10:38:37.027Z,42.08
2022-10-22T10:41:52.114Z,39.75
2022-10-22T10:45:17.053Z,39.28
2022-10-22T10:48:37.370Z,38.02
2022-10-22T10:52:18.963Z,35.74
2022-10-22T10:55:35.991Z,37.09
2022-10-22T10:58:59.014Z,37.69
2022-10-22T11:02:10.385Z,37.74
2022-10-22T11:05:26.396Z,37.11
2022-10-22T11:08:38.171Z,37.90
2022-10-22T11:11:48.900Z,38.85
2022-10-22T11:15:34.123Z,39.86
2022-10-22T11:18:41.849Z,38.37
2022-10-22T11:22:08.427Z,39.92
2022-10-22T11:25:14.590Z,40.40
2022-10-22T11:28:27.044Z,40.86
2022-10-22T11:31:31.680Z,41.52
2022-10-22T11:34:44.444Z,41.09
2022-10-22T11:37:48.268Z,42.09
2022-10-22T11:41:01.313Z,42.48
2022-10-22T11:44:19.545Z,41.58
2022-10-22T11:47:26.206Z,42.25
2022-10-22T11:50:48.951Z,41.98
2022-10-22T11:53:57.078Z,42.48
2022-10-22T11:57:25.754Z,42.58
2022-10-22T12:00:48.597Z,42.42
2022-10-22T12:03:58.407Z,42.52
2022-10-22T12:07:02.173Z,43.12
2022-10-22T12:10:18.865Z,43.44
2022-10-22T12:13:27.742Z,43.28
2022-10-22T12:16:55.224Z,43.49
2022-10-22T12:20:07.280Z,43.17
2022-10-22T12:23:12.618Z,43.95
2022-10-22T12:29:36.227Z,45.05
2022-10-22T12:32:41.402Z,44.21
2022-10-22T12:35:46.600Z,44.12
2022-10-22T12:38:48.921Z,45.10
2022-10-22T12:41:52.670Z,45.47
2022-10-22T12:44:56.671Z,46.08
2022-10-22T12:48:07.948Z,46.34
2022-10-22T12:51:16.171Z,47.33
2022-10-22T12:54:24.377Z,46.94
2022-10-22T12:57:26.740Z,47.21
2022-10-22T13:00:34.539Z,46.59
2022-10-22T13:03:42.464Z,46.26
2022-10-22T13:07:09.542Z,46.38
2022-10-22T13:10:31.987Z,47.23
2022-10-22T13:13:40.275Z,46.97
2022-10-22T13:16:42.475Z,48.21
2022-10-22T13:20:05.409Z,48.63
2022-10-22T13:23:20.126Z,48.79
2022-10-22T13:26:22.574Z,50.68
2022-10-22T13:29:25.205Z,50.18
2022-10-22T13:32:33.158Z,49.53
2022-10-22T13:35:38.208Z,50.05
2022-10-22T13:38:41.207Z,50.13
2022-10-22T13:41:43.442Z,50.78
2022-10-22T13:44:45.704Z,50.83
2022-10-22T13:47:53.206Z,50.88
2022-10-22T13:50:55.651Z,51.86
2022-10-22T13:53:58.172Z,52.54
2022-10-22T13:57:00.928Z,53.35
2022-10-22T14:00:04.032Z,53.62
2022-10-22T14:03:17.379Z,53.75
2022-10-22T14:06:21.912Z,55.80
2022-10-22T14:09:24.110Z,55.75
2022-10-22T14:12:28.353Z,56.08
2022-10-22T14:15:30.560Z,57.73
2022-10-22T14:18:33.693Z,57.41
2022-10-22T14:21:37.954Z,57.88
2022-10-22T14:24:40.150Z,58.16
2022-10-22T14:27:42.792Z,57.91
2022-10-22T14:30:46.039Z,58.46
2022-10-22T14:33:49.019Z,58.38
2022-10-22T14:36:51.163Z,58.69
2022-10-22T14:39:59.703Z,59.75
2022-10-22T14:43:01.883Z,60.72
2022-10-22T14:46:04.058Z,61.68
2022-10-22T14:49:06.371Z,62.75
2022-10-22T14:52:10.632Z,64.50
2022-10-22T14:55:19.507Z,66.66
2022-10-22T14:58:21.689Z,69.65
2022-10-22T15:01:23.917Z,71.93
2022-10-22T15:04:27.234Z,73.84
2022-10-22T15:07:29.475Z,74.66
2022-10-22T15:10:31.628Z,76.02
2022-10-22T15:13:34.804Z,77.09
2022-10-22T15:16:36.985Z,77.66
2022-10-22T15:19:39.165Z,78.31
2022-10-22T15:22:41.600Z,78.47
2022-10-22T15:25:44.116Z,77.51
2022-10-22T15:28:46.323Z,78.24
2022-10-22T15:31:54.546Z,78.76
2022-10-22T15:34:56.710Z,79.27
2022-10-22T15:37:58.888Z,79.71
2022-10-22T15:41:10.169Z,79.80
2022-10-22T15:44:24.147Z,80.25
2022-10-22T15:47:29.522Z,80.74
2022-10-22T15:50:32.229Z,81.12
2022-10-22T15:53:34.407Z,81.21
2022-10-22T15:56:36.580Z,81.61
2022-10-22T15:59:38.991Z,81.35
2022-10-22T16:02:41.217Z,81.24
2022-10-22T16:05:51.502Z,81.06
2022-10-22T16:08:54.805Z,81.33
2022-10-22T16:11:57.465Z,81.50
2022-10-22T16:14:59.645Z,81.60
2022-10-22T16:18:01.793Z,81.72
2022-10-22T16:21:04.047Z,81.49
2022-10-22T16:24:07.677Z,81.59
2022-10-22T16:27:10.559Z,81.52
2022-10-22T16:30:13.403Z,81.99
2022-10-22T16:33:15.665Z,81.98
2022-10-22T16:36:19.820Z,81.85
2022-10-22T16:39:22.116Z,81.67
2022-10-22T16:42:24.251Z,81.88
2022-10-22T16:45:26.480Z,82.07
2022-10-22T16:48:28.886Z,82.85
2022-10-22T16:51:31.126Z,83.28
2022-10-22T16:54:33.303Z,83.15
2022-10-22T16:57:36.017Z,83.63
2022-10-22T17:00:38.219Z,83.47
2022-10-22T17:03:40.495Z,84.82
2022-10-22T17:06:42.749Z,85.66
2022-10-22T17:09:44.920Z,86.09
2022-10-22T17:12:48.159Z,86.44
2022-10-22T17:15:50.323Z,86.84
2022-10-22T17:18:56.236Z,88.07
2022-10-22T17:21:58.478Z,88.89
2022-10-22T17:25:17.396Z,89.09
2022-10-22T17:28:19.548Z,90.17
2022-10-22T17:31:24.765Z,89.84
2022-10-22T17:34:29.921Z,90.50
2022-10-22T17:37:32.914Z,91.05
2022-10-22T17:40:41.439Z,91.64
2022-10-22T17:43:50.770Z,92.58
2022-10-22T17:46:53.324Z,92.46
2022-10-22T17:49:55.549Z,92.30
2022-10-22T17:52:57.732Z,92.91
2022-10-22T17:56:07.018Z,92.22
2022-10-22T17:59:13.186Z,92.69
2022-10-22T18:02:17.632Z,93.19
2022-10-22T18:05:21.108Z,93.35
2022-10-22T18:08:26.134Z,93.48
2022-10-22T18:11:28.442Z,93.93
2022-10-22T18:14:30.587Z,93.96
2022-10-22T18:17:34.668Z,93.59
2022-10-22T18:20:39.355Z,93.68
2022-10-22T18:23:42.085Z,93.83
2022-10-22T18:26:44.728Z,93.69
2022-10-22T18:29:49.960Z,93.62
2022-10-22T18:32:52.178Z,93.52
2022-10-22T18:35:54.364Z,93.78
2022-10-22T18:39:01.486Z,93.57
2022-10-22T18:42:06.302Z,93.71
2022-10-22T18:45:08.886Z,93.35
2022-10-22T18:48:13.597Z,93.65
2022-10-22T18:51:15.791Z,93.03
2022-10-22T18:54:23.808Z,93.63
2022-10-22T18:57:26.807Z,93.69
2022-10-22T19:00:29.460Z,93.61
2022-10-22T19:03:31.616Z,93.41
2022-10-22T19:06:35.878Z,94.33
2022-10-22T19:09:40.552Z,94.71
2022-10-22T19:12:42.724Z,95.25
2022-10-22T19:15:44.888Z,95.41
2022-10-22T19:18:47.034Z,94.76
2022-10-22T19:21:49.753Z,94.31
2022-10-22T19:24:52.090Z,94.34
2022-10-22T19:27:54.946Z,93.96
2022-10-22T19:30:57.801Z,94.81
2022-10-22T19:34:01.859Z,94.79
2022-10-22T19:37:04.026Z,94.64
2022-10-22T19:40:07.921Z,94.75
2022-10-22T19:43:10.104Z,94.93
2022-10-22T19:46:12.504Z,94.66
2022-10-22T19:49:18.856Z,94.86
2022-10-22T19:52:24.268Z,95.34
2022-10-22T19:55:26.840Z,95.20
2022-10-22T19:58:29.027Z,95.25
2022-10-22T20:01:34.682Z,95.62
2022-10-22T20:04:36.903Z,95.30
2022-10-22T20:07:39.172Z,95.06
2022-10-22T20:10:41.543Z,95.24
2022-10-22T20:13:45.518Z,95.00
2022-10-22T20:16:51.730Z,95.33
2022-10-22T20:19:53.896Z,95.32
2022-10-22T20:22:56.093Z,95.43
2022-10-22T20:25:58.351Z,95.74
2022-10-22T20:29:00.560Z,95.32
2022-10-22T20:32:04.338Z,95.60
2022-10-22T20:35:08.854Z,95.64
2022-10-22T20:38:14.146Z,95.42
2022-10-22T20:41:19.460Z,95.73
2022-10-22T20:44:21.652Z,95.61
2022-10-22T20:47:30.444Z,95.81
2022-10-22T20:50:41.556Z,95.70
2022-10-22T20:53:43.798Z,95.80
2022-10-22T20:56:47.874Z,96.02
2022-10-22T20:59:50.575Z,96.01
2022-10-22T21:02:52.992Z,95.93
2022-10-22T21:05:55.151Z,95.86
2022-10-22T21:08:57.474Z,96.08
2022-10-22T21:12:03.243Z,96.32
2022-10-22T21:15:10.188Z,96.37
2022-10-22T21:18:14.766Z,96.51
2022-10-22T21:21:20.100Z,96.49
2022-10-22T21:24:24.766Z,96.86
2022-10-22T21:27:26.951Z,96.69
2022-10-22T21:30:29.675Z,97.08
2022-10-22T21:33:35.028Z,96.87
2022-10-22T21:36:37.334Z,96.77
2022-10-22T21:39:41.999Z,96.68
2022-10-22T21:42:44.666Z,96.76
2022-10-22T21:45:46.905Z,96.79
2022-10-22T21:49:01.938Z,97.04
2022-10-22T21:52:06.876Z,97.65
2022-10-22T21:55:09.414Z,97.70
2022-10-22T21:58:11.607Z,97.58
2022-10-22T22:01:15.173Z,97.48
2022-10-22T22:04:17.350Z,97.51
2022-10-22T22:07:19.510Z,97.58
2022-10-22T22:10:21.756Z,97.35
2022-10-22T22:13:24.962Z,97.31
2022-10-22T22:16:30.325Z,97.85
2022-10-22T22:19:33.227Z,97.73
2022-10-22T22:22:35.490Z,97.44
2022-10-22T22:25:37.729Z,97.94
2022-10-22T22:28:40.376Z,98.19
2022-10-22T22:31:43.551Z,98.26
2022-10-22T22:34:45.731Z,98.32
2022-10-22T22:37:47.878Z,98.82
2022-10-22T22:40:50.038Z,98.40
2022-10-22T22:43:52.296Z,98.90
2022-10-22T22:46:54.532Z,98.54
2022-10-22T22:49:56.706Z,98.63
2022-10-22T22:52:58.882Z,98.84
2022-10-22T22:56:09.000Z,98.76
2022-10-22T22:59:11.893Z,98.83
2022-10-22T23:02:14.119Z,99.00
2022-10-22T23:05:16.292Z,98.93
2022-10-22T23:08:18.456Z,99.15
2022-10-22T23:11:21.374Z,99.16
2022-10-22T23:14:23.547Z,99.36
2022-10-22T23:17:25.775Z,99.18
2022-10-22T23:20:27.959Z,99.51
2022-10-22T23:23:30.912Z,99.45
2022-10-22T23:26:39.504Z,99.64
2022-10-22T23:29:41.703Z,99.74
2022-10-22T23:32:43.864Z,99.36
2022-10-22T23:35:46.138Z,99.62
2022-10-22T23:38:50.214Z,99.58
2022-10-22T23:41:53.183Z,99.55
2022-10-22T23:44:55.351Z,99.40
2022-10-22T23:47:57.518Z,99.57
2022-10-22T23:51:11.383Z,99.40
2022-10-22T23:54:15.875Z,99.55
2022-10-22T23:57:18.044Z,99.42
